La Grace — OL5614 — position and weather

sailwx.info

Track history (hours):
 
Tides and Currents Weather Stations Pressure Air Temp Water Temp Dewpoint Dewpoint Depression Visibility Wind Speed Wind Dir Waves Ship Positions

La Grace

Last reported at 2018-Jun-10 09:18 UTC. Time now 2018-Jun-24 16:27 UTC.
Position N 40°44' E 013°59'.
Warning: this ship's position is 14 days out of date.

Length 23 m.

Type: Sailing vessel. MMSI: 270467000.

Date/timePositionNaut miles runAvg speedWind from/ knotsBaromVisibWave heightAir tempDewpointWater temp
2018-Jun-10 09:18N 40°44' E 013°59'2 6.7
2018-Jun-10 09:00N 40°44' E 014°02'5 6.0
2018-Jun-10 08:15N 40°48' E 014°06'2 0.9
2018-Jun-10 06:39N 40°49' E 014°05'0 0.0
2018-Jun-10 00:13N 40°49' E 014°05'0 0.0
2018-Jun-09 23:58N 40°49' E 014°05'0 0.0
2018-Jun-09 23:19N 40°49' E 014°05'5 0.7
2018-Jun-09 16:29N 40°47' E 014°11'3 5.6
2018-Jun-09 16:00N 40°49' E 014°14'1 0.3
2018-Jun-09 11:53N 40°50' E 014°15'0 0.0
2018-Jun-09 11:26N 40°50' E 014°15'0 0.0
2018-Jun-09 10:53N 40°50' E 014°15'0 0.0
2018-Jun-09 10:26N 40°50' E 014°15'0 0.0
2018-Jun-09 09:47N 40°50' E 014°15'0 0.0
2018-Jun-09 08:53N 40°50' E 014°15'0 0.0
2018-Jun-09 07:56N 40°50' E 014°15'0 0.0
2018-Jun-09 07:26N 40°50' E 014°15'0 0.0
2018-Jun-07 23:06N 40°50' E 014°14'0 0.0
2018-Jun-07 14:21N 40°50' E 014°14'0 0.0
2018-Jun-07 13:54N 40°50' E 014°14'0 0.0
2018-Jun-07 08:37N 40°50' E 014°14'0 0.0
2018-Jun-07 06:07N 40°50' E 014°14'0 0.1
2018-Jun-07 05:43N 40°50' E 014°14'0 0.0
2018-Jun-07 05:19N 40°50' E 014°14'  
2018-Jun-04 11:32N 40°50' E 014°14'0 0.0
2018-Jun-04 08:02N 40°50' E 014°14'0 0.0
2018-Jun-04 07:41N 40°50' E 014°14'0 0.0
2018-Jun-04 07:29N 40°50' E 014°14'0 0.0
2018-Jun-04 04:02N 40°50' E 014°14'0 0.0
2018-Jun-04 03:38N 40°50' E 014°14'0 0.0
2018-Jun-04 01:47N 40°50' E 014°14'0 0.0
2018-Jun-03 21:56N 40°50' E 014°14'0 0.0
2018-Jun-03 19:32N 40°50' E 014°14'0 0.0
2018-Jun-03 18:35N 40°50' E 014°14'0 0.0
2018-Jun-03 18:29N 40°50' E 014°14'0 0.0
2018-Jun-03 17:59N 40°50' E 014°14'0 0.0
2018-Jun-03 09:48N 40°50' E 014°14'0 0.0
2018-Jun-03 07:18N 40°50' E 014°14'0 0.0
2018-Jun-03 05:03N 40°50' E 014°14'0 0.0
2018-Jun-03 03:53N 40°50' E 014°14'0 0.0
2018-Jun-03 03:29N 40°50' E 014°14'0 0.0
2018-Jun-02 21:30N 40°50' E 014°14'0 0.0
2018-Jun-02 21:00N 40°50' E 014°14'0 0.0
2018-Jun-02 18:36N 40°50' E 014°15'0 0.0
2018-Jun-02 04:36N 40°50' E 014°14'0 0.0
2018-Jun-02 04:27N 40°50' E 014°14'0 0.0
2018-Jun-01 19:38N 40°50' E 014°15'13 2.1
2018-Jun-01 13:37N 40°38' E 014°09'1 6.5
2018-Jun-01 13:27N 40°37' E 014°10'  
Track history (hours):
 
Tides and Currents Weather Stations Pressure Air Temp Water Temp Dewpoint Dewpoint Depression Visibility Wind Speed Wind Dir Waves Ship Positions

La Grace

Last reported at 2018-Jun-10 09:18 UTC. Time now 2018-Jun-24 16:27 UTC.
Position N 40°44' E 013°59'.
Warning: this ship's position is 14 days out of date.

Length 23 m.

Type: Sailing vessel. MMSI: 270467000.

Date/timePositionNaut miles runAvg speedWind from/ knotsBaromVisibWave heightAir tempDewpointWater temp
2018-Jun-10 09:18N 40°44' E 013°59'2 6.7
2018-Jun-10 09:00N 40°44' E 014°02'5 6.0
2018-Jun-10 08:15N 40°48' E 014°06'2 0.9
2018-Jun-10 06:39N 40°49' E 014°05'0 0.0
2018-Jun-10 00:13N 40°49' E 014°05'0 0.0
2018-Jun-09 23:58N 40°49' E 014°05'0 0.0
2018-Jun-09 23:19N 40°49' E 014°05'5 0.7
2018-Jun-09 16:29N 40°47' E 014°11'3 5.6
2018-Jun-09 16:00N 40°49' E 014°14'1 0.3
2018-Jun-09 11:53N 40°50' E 014°15'0 0.0
2018-Jun-09 11:26N 40°50' E 014°15'0 0.0
2018-Jun-09 10:53N 40°50' E 014°15'0 0.0
2018-Jun-09 10:26N 40°50' E 014°15'0 0.0
2018-Jun-09 09:47N 40°50' E 014°15'0 0.0
2018-Jun-09 08:53N 40°50' E 014°15'0 0.0
2018-Jun-09 07:56N 40°50' E 014°15'0 0.0
2018-Jun-09 07:26N 40°50' E 014°15'0 0.0
2018-Jun-07 23:06N 40°50' E 014°14'0 0.0
2018-Jun-07 14:21N 40°50' E 014°14'0 0.0
2018-Jun-07 13:54N 40°50' E 014°14'0 0.0
2018-Jun-07 08:37N 40°50' E 014°14'0 0.0
2018-Jun-07 06:07N 40°50' E 014°14'0 0.1
2018-Jun-07 05:43N 40°50' E 014°14'0 0.0
2018-Jun-07 05:19N 40°50' E 014°14'  
2018-Jun-04 11:32N 40°50' E 014°14'0 0.0
2018-Jun-04 08:02N 40°50' E 014°14'0 0.0
2018-Jun-04 07:41N 40°50' E 014°14'0 0.0
2018-Jun-04 07:29N 40°50' E 014°14'0 0.0
2018-Jun-04 04:02N 40°50' E 014°14'0 0.0
2018-Jun-04 03:38N 40°50' E 014°14'0 0.0
2018-Jun-04 01:47N 40°50' E 014°14'0 0.0
2018-Jun-03 21:56N 40°50' E 014°14'0 0.0
2018-Jun-03 19:32N 40°50' E 014°14'0 0.0
2018-Jun-03 18:35N 40°50' E 014°14'0 0.0
2018-Jun-03 18:29N 40°50' E 014°14'0 0.0
2018-Jun-03 17:59N 40°50' E 014°14'0 0.0
2018-Jun-03 09:48N 40°50' E 014°14'0 0.0
2018-Jun-03 07:18N 40°50' E 014°14'0 0.0
2018-Jun-03 05:03N 40°50' E 014°14'0 0.0
2018-Jun-03 03:53N 40°50' E 014°14'0 0.0
2018-Jun-03 03:29N 40°50' E 014°14'0 0.0
2018-Jun-02 21:30N 40°50' E 014°14'0 0.0
2018-Jun-02 21:00N 40°50' E 014°14'0 0.0
2018-Jun-02 18:36N 40°50' E 014°15'0 0.0
2018-Jun-02 04:36N 40°50' E 014°14'0 0.0
2018-Jun-02 04:27N 40°50' E 014°14'0 0.0
2018-Jun-01 19:38N 40°50' E 014°15'13 2.1
2018-Jun-01 13:37N 40°38' E 014°09'1 6.5
2018-Jun-01 13:27N 40°37' E 014°10'  

Dump ship's entire track history